createdAt,value
2023-04-21T00:01:38.868Z,16.60
2023-04-21T00:04:11.845Z,16.70
2023-04-21T00:06:47.672Z,16.40
2023-04-21T00:09:23.924Z,16.77
2023-04-21T00:11:57.938Z,17.30
2023-04-21T00:14:33.119Z,17.10
2023-04-21T00:17:03.607Z,17.00
2023-04-21T00:19:34.322Z,16.67
2023-04-21T00:22:12.648Z,17.67
2023-04-21T00:24:42.588Z,17.90
2023-04-21T00:27:12.735Z,18.67
2023-04-21T00:29:43.017Z,18.30
2023-04-21T00:32:15.659Z,18.57
2023-04-21T00:34:45.612Z,18.83
2023-04-21T00:37:20.758Z,18.53
2023-04-21T00:39:51.682Z,18.77
2023-04-21T00:42:21.598Z,19.27
2023-04-21T00:44:52.706Z,19.60
2023-04-21T00:47:22.922Z,19.73
2023-04-21T00:49:54.509Z,19.60
2023-04-21T00:52:29.770Z,18.63
2023-04-21T00:55:02.650Z,19.10
2023-04-21T00:57:38.687Z,19.70
2023-04-21T01:00:13.963Z,18.87
2023-04-21T01:02:46.327Z,19.27
2023-04-21T01:05:25.035Z,19.20
2023-04-21T01:08:02.180Z,19.37
2023-04-21T01:10:40.579Z,19.17
2023-04-21T01:13:10.374Z,20.00
2023-04-21T01:15:42.889Z,19.07
2023-04-21T01:18:13.530Z,21.30
2023-04-21T01:20:45.005Z,20.60
2023-04-21T01:23:21.471Z,20.27
2023-04-21T01:25:51.421Z,19.87
2023-04-21T01:55:46.571Z,20.43
2023-04-21T02:07:24.088Z,20.43
2023-04-21T02:09:54.063Z,21.27
2023-04-21T02:12:26.670Z,22.47
2023-04-21T02:15:07.157Z,20.83
2023-04-21T02:17:37.117Z,20.87
2023-04-21T02:20:07.721Z,20.43
2023-04-21T02:22:42.392Z,21.47
2023-04-21T02:25:17.786Z,20.63
2023-04-21T02:27:50.336Z,21.23
2023-04-21T02:30:21.084Z,19.93
2023-04-21T02:32:51.230Z,21.50
2023-04-21T02:35:21.285Z,22.83
2023-04-21T02:37:53.891Z,20.73
2023-04-21T02:40:23.716Z,21.30
2023-04-21T02:42:56.498Z,20.40
2023-04-21T02:45:41.612Z,20.77
2023-04-21T02:48:11.709Z,19.67
2023-04-21T02:50:42.028Z,19.67
2023-04-21T02:53:11.889Z,19.67
2023-04-21T02:55:45.629Z,19.13
2023-04-21T02:58:18.324Z,19.30
2023-04-21T03:00:57.163Z,18.27
2023-04-21T03:03:28.055Z,17.80
2023-04-21T03:06:00.552Z,16.13
2023-04-21T03:08:33.658Z,16.73
2023-04-21T03:11:13.499Z,16.93
2023-04-21T03:13:46.066Z,15.93
2023-04-21T03:16:16.214Z,15.77
2023-04-21T03:18:46.167Z,16.17
2023-04-21T03:21:16.197Z,15.67
2023-04-21T03:23:46.196Z,15.87
2023-04-21T03:26:19.459Z,16.17
2023-04-21T03:28:52.007Z,16.10
2023-04-21T03:31:21.892Z,16.03
2023-04-21T03:33:51.779Z,15.47
2023-04-21T03:36:21.650Z,15.90
2023-04-21T03:38:51.553Z,15.10
2023-04-21T03:41:23.608Z,16.53
2023-04-21T03:43:57.682Z,15.97
2023-04-21T03:46:27.862Z,14.93
2023-04-21T03:48:57.859Z,15.00
2023-04-21T03:51:27.704Z,15.20
2023-04-21T03:54:01.617Z,15.13
2023-04-21T03:56:38.868Z,15.03
2023-04-21T03:59:11.319Z,15.47
2023-04-21T04:01:45.174Z,15.03
2023-04-21T04:04:15.375Z,15.57
2023-04-21T04:06:45.423Z,15.53
2023-04-21T04:09:15.255Z,14.87
2023-04-21T04:11:45.054Z,15.17
2023-04-21T04:14:17.555Z,16.07
2023-04-21T04:16:49.461Z,15.30
2023-04-21T04:19:19.627Z,16.03
2023-04-21T04:21:52.094Z,16.13
2023-04-21T04:24:29.253Z,15.17
2023-04-21T04:27:02.345Z,14.73
2023-04-21T04:29:35.322Z,15.60
2023-04-21T04:32:12.280Z,15.20
2023-04-21T04:34:42.941Z,15.27
2023-04-21T04:37:13.630Z,15.20
2023-04-21T04:39:49.112Z,16.63
2023-04-21T04:42:20.486Z,15.10
2023-04-21T04:44:57.585Z,16.07
2023-04-21T04:47:30.644Z,15.30
2023-04-21T04:50:05.528Z,15.47
2023-04-21T04:52:35.499Z,14.93
2023-04-21T04:55:09.985Z,14.37
2023-04-21T04:57:40.035Z,14.53
2023-04-21T05:00:19.216Z,13.27
2023-04-21T05:02:49.410Z,13.23
2023-04-21T05:05:30.793Z,14.13
2023-04-21T05:08:28.447Z,14.03
2023-04-21T05:11:03.484Z,13.30
2023-04-21T05:13:33.428Z,13.27
2023-04-21T05:22:56.851Z,12.23
2023-04-21T05:25:27.020Z,12.13
2023-04-21T05:27:59.878Z,12.87
2023-04-21T05:30:29.766Z,12.73
2023-04-21T05:32:59.968Z,13.23
2023-04-21T05:35:29.812Z,12.90
2023-04-21T05:38:04.709Z,12.90
2023-04-21T05:40:34.561Z,12.03
2023-04-21T05:43:05.309Z,12.73
2023-04-21T05:45:35.074Z,12.10
2023-04-21T05:48:04.936Z,12.20
2023-04-21T05:50:44.911Z,11.57
2023-04-21T05:53:19.958Z,11.60
2023-04-21T05:55:49.865Z,12.33
2023-04-21T05:58:19.857Z,12.20
2023-04-21T06:00:53.155Z,11.67
2023-04-21T06:03:27.489Z,11.50
2023-04-21T06:06:02.279Z,10.97
2023-04-21T06:08:36.229Z,11.20
2023-04-21T06:11:07.370Z,11.40
2023-04-21T06:13:38.534Z,10.27
2023-04-21T06:16:09.592Z,11.60
2023-04-21T06:18:40.617Z,11.63
2023-04-21T06:21:10.512Z,11.73
2023-04-21T06:23:45.637Z,10.50
2023-04-21T06:26:17.814Z,10.60
2023-04-21T06:28:47.718Z,11.30
2023-04-21T06:31:20.394Z,11.70
2023-04-21T06:33:50.329Z,11.33
2023-04-21T06:36:22.057Z,10.60
2023-04-21T06:38:58.651Z,10.40
2023-04-21T06:41:32.771Z,11.13
2023-04-21T06:44:02.563Z,10.63
2023-04-21T06:46:37.711Z,10.13
2023-04-21T06:49:07.527Z,9.87
2023-04-21T06:54:31.444Z,9.77
2023-04-21T06:57:08.417Z,9.97
2023-04-21T06:59:49.130Z,10.07
2023-04-21T07:02:20.065Z,10.30
2023-04-21T07:04:52.308Z,10.60
2023-04-21T07:07:22.142Z,10.30
2023-04-21T07:09:54.603Z,10.27
2023-04-21T07:12:27.087Z,9.90
2023-04-21T07:14:56.898Z,10.33
2023-04-21T07:17:26.775Z,10.27
2023-04-21T07:20:19.215Z,10.37
2023-04-21T07:22:51.705Z,10.07
2023-04-21T07:25:24.626Z,10.67
2023-04-21T07:27:56.817Z,10.63
2023-04-21T07:30:26.677Z,10.53
2023-04-21T07:32:59.347Z,10.03
2023-04-21T07:35:33.867Z,9.47
2023-04-21T07:38:03.712Z,10.17
2023-04-21T07:40:36.182Z,10.00
2023-04-21T07:43:12.121Z,10.13
2023-04-21T07:45:41.987Z,9.87
2023-04-21T07:48:11.910Z,9.90
2023-04-21T07:50:44.463Z,9.87
2023-04-21T07:53:14.287Z,9.83
2023-04-21T07:55:58.577Z,9.90
2023-04-21T07:58:28.436Z,9.57
2023-04-21T08:01:01.046Z,9.63
2023-04-21T08:03:32.150Z,9.50
2023-04-21T08:06:08.308Z,9.73
2023-04-21T08:08:43.805Z,10.03
2023-04-21T08:14:03.609Z,9.30
2023-04-21T08:16:34.798Z,8.80
2023-04-21T08:19:09.709Z,8.97
2023-04-21T08:21:40.307Z,9.73
2023-04-21T08:24:11.422Z,9.27
2023-04-21T08:26:49.349Z,9.27
2023-04-21T08:29:21.859Z,8.80
2023-04-21T08:31:54.620Z,9.43
2023-04-21T08:34:35.944Z,9.50
2023-04-21T08:37:08.406Z,9.70
2023-04-21T08:39:38.284Z,8.60
2023-04-21T08:42:15.984Z,8.80
2023-04-21T08:44:48.733Z,9.80
2023-04-21T08:47:18.924Z,8.73
2023-04-21T08:49:58.089Z,8.67
2023-04-21T08:52:28.268Z,9.40
2023-04-21T08:55:02.876Z,9.23
2023-04-21T08:57:40.817Z,8.83
2023-04-21T09:00:12.387Z,9.20
2023-04-21T09:03:00.884Z,9.43
2023-04-21T09:05:41.932Z,9.40
2023-04-21T09:08:23.537Z,8.60
2023-04-21T09:10:55.300Z,8.40
2023-04-21T09:13:33.591Z,8.73
2023-04-21T09:16:07.366Z,8.90
2023-04-21T09:18:40.915Z,9.33
2023-04-21T09:21:12.559Z,8.67
2023-04-21T09:23:51.890Z,9.20
2023-04-21T09:26:23.463Z,8.13
2023-04-21T09:28:56.561Z,8.37
2023-04-21T09:31:29.425Z,8.50
2023-04-21T09:34:01.822Z,8.50
2023-04-21T09:36:32.944Z,8.20
2023-04-21T09:41:37.370Z,8.68
2023-04-21T09:44:09.783Z,7.93
2023-04-21T09:46:40.354Z,8.47
2023-04-21T09:49:12.701Z,8.13
2023-04-21T09:52:10.503Z,7.63
2023-04-21T09:54:37.378Z,8.40
2023-04-21T09:57:09.569Z,8.00
2023-04-21T09:59:48.678Z,8.57
2023-04-21T10:02:22.690Z,8.30
2023-04-21T10:04:53.057Z,8.57
2023-04-21T10:07:23.023Z,7.80
2023-04-21T10:09:58.245Z,8.03
2023-04-21T10:12:29.416Z,8.02
2023-04-21T10:15:01.824Z,8.23
2023-04-21T10:17:31.960Z,8.52
2023-04-21T10:22:46.220Z,8.63
2023-04-21T10:25:17.363Z,8.23
2023-04-21T10:27:48.416Z,8.20
2023-04-21T10:30:26.874Z,7.68
2023-04-21T10:33:07.182Z,7.80
2023-04-21T10:36:01.643Z,8.43
2023-04-21T10:38:38.422Z,8.25
2023-04-21T10:41:30.097Z,7.65
2023-04-21T10:44:01.306Z,8.02
2023-04-21T10:46:42.091Z,7.50
2023-04-21T10:49:18.364Z,7.60
2023-04-21T10:52:06.545Z,7.73
2023-04-21T10:54:46.315Z,7.05
2023-04-21T10:57:23.129Z,7.07
2023-04-21T10:59:55.482Z,7.13
2023-04-21T11:02:28.131Z,7.10
2023-04-21T11:04:58.503Z,7.43
2023-04-21T11:07:29.564Z,7.53
2023-04-21T11:10:04.228Z,7.53
2023-04-21T11:12:35.206Z,7.28
2023-04-21T11:15:13.057Z,7.90
2023-04-21T11:17:48.942Z,6.80
2023-04-21T11:20:18.852Z,7.22
2023-04-21T11:22:48.681Z,7.10
2023-04-21T11:25:23.182Z,6.60
2023-04-21T11:28:00.323Z,7.82
2023-04-21T11:30:39.095Z,8.15
2023-04-21T11:33:11.590Z,7.20
2023-04-21T11:35:48.689Z,6.57
2023-04-21T11:38:21.406Z,7.20
2023-04-21T11:40:52.218Z,6.97
2023-04-21T11:43:24.169Z,6.90
2023-04-21T11:45:54.066Z,6.53
2023-04-21T11:48:35.178Z,7.10
2023-04-21T11:51:05.276Z,7.15
2023-04-21T11:53:35.984Z,6.78
2023-04-21T11:56:06.907Z,6.50
2023-04-21T11:58:38.483Z,6.47
2023-04-21T12:01:11.959Z,6.93
2023-04-21T12:03:44.790Z,6.75
2023-04-21T12:06:23.815Z,6.45
2023-04-21T12:08:59.529Z,6.50
2023-04-21T12:11:30.602Z,6.63
2023-04-21T12:14:01.129Z,6.68
2023-04-21T12:16:32.132Z,6.30
2023-04-21T12:19:04.569Z,5.82
2023-04-21T12:21:38.511Z,6.10
2023-04-21T12:24:11.720Z,5.90
2023-04-21T12:26:42.288Z,5.97
2023-04-21T12:29:12.088Z,6.38
2023-04-21T12:31:54.401Z,5.93
2023-04-21T12:34:33.106Z,6.00
2023-04-21T12:37:03.116Z,6.15
2023-04-21T12:42:19.280Z,5.65
2023-04-21T12:44:51.689Z,5.72
2023-04-21T12:47:24.536Z,5.82
2023-04-21T12:50:01.560Z,5.68
2023-04-21T12:52:31.578Z,5.43
2023-04-21T12:55:02.232Z,5.00
2023-04-21T12:57:34.521Z,5.63
2023-04-21T13:00:10.523Z,5.97
2023-04-21T13:02:40.426Z,5.65
2023-04-21T13:05:15.608Z,6.10
2023-04-21T13:07:45.511Z,6.00
2023-04-21T13:10:18.220Z,5.53
2023-04-21T13:12:49.658Z,5.10
2023-04-21T13:15:23.729Z,5.32
2023-04-21T13:17:57.535Z,6.68
2023-04-21T13:20:30.011Z,5.63
2023-04-21T13:22:59.861Z,5.43
2023-04-21T13:25:31.221Z,5.50
2023-04-21T13:28:01.214Z,5.15
2023-04-21T13:30:34.077Z,5.38
2023-04-21T13:33:03.973Z,5.72
2023-04-21T13:35:39.267Z,5.35
2023-04-21T13:38:09.103Z,5.28
2023-04-21T13:40:39.777Z,4.88
2023-04-21T13:43:09.645Z,5.65
2023-04-21T13:45:41.497Z,5.55
2023-04-21T13:48:11.459Z,5.40
2023-04-21T13:50:45.299Z,5.82
2023-04-21T13:53:16.875Z,5.97
2023-04-21T13:55:49.688Z,5.72
2023-04-21T13:58:19.849Z,5.57
2023-04-21T14:00:49.686Z,5.82
2023-04-21T14:03:19.855Z,5.90
2023-04-21T14:05:52.753Z,5.32
2023-04-21T14:08:23.310Z,5.78
2023-04-21T14:10:56.243Z,5.20
2023-04-21T14:13:37.364Z,5.82
2023-04-21T14:16:12.213Z,6.05
2023-04-21T14:18:45.441Z,5.30
2023-04-21T14:21:18.582Z,5.32
2023-04-21T14:23:52.940Z,5.45
2023-04-21T14:26:26.952Z,5.65
2023-04-21T14:28:56.856Z,5.43
2023-04-21T14:31:26.689Z,5.72
2023-04-21T14:33:58.220Z,5.72
2023-04-21T14:36:31.289Z,5.30
2023-04-21T14:39:01.100Z,5.80
2023-04-21T14:41:31.202Z,5.75
2023-04-21T14:44:01.037Z,6.28
2023-04-21T14:46:35.793Z,5.30
2023-04-21T14:49:06.089Z,6.07
2023-04-21T14:51:40.671Z,7.25
2023-04-21T14:54:11.779Z,11.23
2023-04-21T14:56:41.687Z,12.40
2023-04-21T14:59:11.552Z,12.18
2023-04-21T15:01:41.654Z,12.05
2023-04-21T15:04:11.920Z,12.38
2023-04-21T15:06:44.498Z,12.13
2023-04-21T15:09:14.317Z,11.95
2023-04-21T15:11:44.324Z,13.50
2023-04-21T15:14:14.243Z,12.52
2023-04-21T15:16:44.105Z,11.90
2023-04-21T15:19:19.554Z,12.07
2023-04-21T15:22:03.855Z,12.25
2023-04-21T15:24:49.070Z,12.18
2023-04-21T15:27:19.320Z,11.68
2023-04-21T15:29:49.154Z,11.63
2023-04-21T15:32:19.016Z,12.77
2023-04-21T15:35:00.505Z,12.35
2023-04-21T15:37:40.767Z,12.70
2023-04-21T15:40:21.263Z,13.40
2023-04-21T15:42:52.697Z,12.05
2023-04-21T15:45:22.549Z,12.40
2023-04-21T15:47:52.558Z,12.25
2023-04-21T15:50:29.327Z,12.75
2023-04-21T15:53:09.367Z,13.00
2023-04-21T15:55:43.176Z,11.98
2023-04-21T15:58:15.055Z,11.18
2023-04-21T16:00:46.128Z,11.07
2023-04-21T16:03:16.175Z,11.60
2023-04-21T16:05:47.593Z,11.57
2023-04-21T16:08:20.261Z,10.85
2023-04-21T16:10:50.719Z,10.60
2023-04-21T16:13:21.377Z,11.45
2023-04-21T16:15:53.760Z,10.68
2023-04-21T16:18:36.974Z,10.20
2023-04-21T16:21:08.012Z,5.07
2023-04-21T16:23:44.884Z,5.43
2023-04-21T16:26:17.159Z,4.97
2023-04-21T16:28:48.242Z,5.13
2023-04-21T16:31:22.786Z,5.20
2023-04-21T16:34:01.330Z,5.00
2023-04-21T16:36:32.647Z,5.20
2023-04-21T16:39:08.655Z,5.55
2023-04-21T16:41:43.620Z,5.28
2023-04-21T16:44:20.859Z,5.10
2023-04-21T16:46:51.529Z,5.25
2023-04-21T16:49:24.258Z,4.97
2023-04-21T16:51:55.426Z,5.05
2023-04-21T16:54:33.688Z,4.72
2023-04-21T16:59:50.142Z,5.15
2023-04-21T17:02:20.247Z,5.40
2023-04-21T17:04:50.333Z,5.03
2023-04-21T17:07:22.377Z,5.03
2023-04-21T17:09:57.612Z,5.35
2023-04-21T17:12:27.428Z,5.10
2023-04-21T17:14:58.577Z,5.10
2023-04-21T17:17:29.819Z,4.95
2023-04-21T17:20:03.883Z,5.53
2023-04-21T17:22:39.754Z,5.28
2023-04-21T17:25:14.675Z,5.30
2023-04-21T17:27:45.064Z,5.32
2023-04-21T17:30:15.351Z,5.32
2023-04-21T17:32:51.568Z,5.70
2023-04-21T17:35:28.296Z,5.40
2023-04-21T17:38:01.891Z,5.40
2023-04-21T17:40:36.406Z,5.55
2023-04-21T17:43:06.247Z,5.70
2023-04-21T17:45:37.166Z,5.32
2023-04-21T17:48:07.405Z,5.75
2023-04-21T17:50:37.367Z,5.95
2023-04-21T17:53:09.977Z,5.53
2023-04-21T17:55:45.488Z,6.32
2023-04-21T17:58:15.398Z,6.15
2023-04-21T18:00:45.256Z,6.47
2023-04-21T18:03:15.185Z,5.93
2023-04-21T18:05:45.084Z,5.88
2023-04-21T18:08:15.774Z,5.93
2023-04-21T18:10:51.448Z,6.00
2023-04-21T18:13:21.315Z,6.22
2023-04-21T18:15:53.642Z,6.43
2023-04-21T18:18:23.525Z,6.03
2023-04-21T18:20:53.408Z,6.30
2023-04-21T18:23:24.023Z,5.68
2023-04-21T18:25:56.546Z,6.53
2023-04-21T18:28:26.362Z,6.45
2023-04-21T18:30:56.280Z,7.10
2023-04-21T18:33:26.320Z,6.47
2023-04-21T18:35:57.385Z,6.70
2023-04-21T18:38:36.102Z,6.90
2023-04-21T18:41:08.538Z,7.45
2023-04-21T18:43:38.492Z,7.38
2023-04-21T18:46:08.599Z,6.55
2023-04-21T18:48:38.445Z,7.25
2023-04-21T18:51:08.348Z,8.65
2023-04-21T18:53:39.808Z,8.48
2023-04-21T18:56:15.018Z,9.32
2023-04-21T18:58:44.855Z,9.82
2023-04-21T19:01:14.805Z,10.52
2023-04-21T19:03:45.156Z,10.40
2023-04-21T19:06:15.115Z,9.87
2023-04-21T19:08:45.214Z,11.05
2023-04-21T19:11:18.281Z,10.87
2023-04-21T19:13:48.491Z,10.83
2023-04-21T19:16:18.592Z,10.85
2023-04-21T19:18:48.541Z,10.65
2023-04-21T19:21:18.392Z,11.88
2023-04-21T19:23:48.232Z,11.43
2023-04-21T19:26:22.084Z,11.23
2023-04-21T19:28:52.163Z,11.70
2023-04-21T19:31:24.408Z,10.57
2023-04-21T19:33:54.353Z,11.10
2023-04-21T19:36:24.422Z,10.60
2023-04-21T19:38:57.331Z,10.80
2023-04-21T19:41:29.710Z,10.60
2023-04-21T19:43:59.844Z,10.93
2023-04-21T19:46:30.032Z,11.10
2023-04-21T19:48:59.860Z,10.93
2023-04-21T19:51:30.230Z,10.87
2023-04-21T19:54:11.532Z,9.93
2023-04-21T19:56:44.930Z,10.60
2023-04-21T19:59:14.819Z,10.93
2023-04-21T20:01:44.649Z,10.48
2023-04-21T20:04:14.578Z,11.13
2023-04-21T20:06:44.541Z,9.67
2023-04-21T20:09:14.706Z,9.87
2023-04-21T20:11:47.260Z,10.27
2023-04-21T20:14:17.311Z,10.97
2023-04-21T20:16:48.127Z,10.13
2023-04-21T20:19:18.203Z,9.73
2023-04-21T20:21:51.227Z,10.65
2023-04-21T20:24:21.557Z,9.97
2023-04-21T20:26:54.193Z,9.77
2023-04-21T20:29:24.775Z,10.23
2023-04-21T20:31:54.713Z,10.07
2023-04-21T20:34:24.853Z,10.00
2023-04-21T20:36:55.874Z,10.02
2023-04-21T20:39:25.972Z,11.00
2023-04-21T20:42:09.203Z,10.20
2023-04-21T20:44:42.944Z,11.77
2023-04-21T20:47:13.550Z,10.15
2023-04-21T20:49:43.834Z,10.03
2023-04-21T20:52:13.782Z,9.88
2023-04-21T20:54:43.609Z,9.95
2023-04-21T20:57:16.256Z,9.20
2023-04-21T20:59:46.079Z,9.45
2023-04-21T21:02:16.134Z,10.20
2023-04-21T21:04:47.433Z,9.75
2023-04-21T21:07:17.504Z,10.32
2023-04-21T21:09:47.390Z,9.48
2023-04-21T21:12:19.853Z,8.70
2023-04-21T21:14:49.636Z,9.10
2023-04-21T21:17:19.564Z,7.90
2023-04-21T21:19:49.646Z,5.90
2023-04-21T21:22:19.436Z,5.70
2023-04-21T21:24:50.661Z,5.38
2023-04-21T21:27:23.143Z,5.60
2023-04-21T21:29:52.980Z,5.60
2023-04-21T21:32:22.846Z,5.40
2023-04-21T21:34:52.757Z,6.70
2023-04-21T21:37:26.299Z,6.18
2023-04-21T21:39:56.502Z,7.07
2023-04-21T21:42:28.902Z,6.22
2023-04-21T21:44:58.688Z,7.95
2023-04-21T21:47:29.070Z,7.68
2023-04-21T21:49:59.315Z,6.57
2023-04-21T21:52:29.163Z,7.60
2023-04-21T21:55:01.370Z,8.68
2023-04-21T21:57:33.839Z,8.65
2023-04-21T22:00:03.762Z,9.10
2023-04-21T22:02:33.779Z,8.68
2023-04-21T22:05:04.660Z,9.95
2023-04-21T22:07:35.651Z,9.50
2023-04-21T22:10:05.662Z,10.05
2023-04-21T22:12:38.177Z,9.83
2023-04-21T22:15:09.761Z,9.70
2023-04-21T22:17:40.431Z,10.20
2023-04-21T22:20:12.372Z,10.55
2023-04-21T22:22:42.218Z,10.18
2023-04-21T22:25:13.694Z,9.38
2023-04-21T22:27:48.671Z,9.85
2023-04-21T22:30:18.467Z,10.10
2023-04-21T22:32:48.367Z,10.73
2023-04-21T22:35:18.249Z,11.18
2023-04-21T22:37:48.105Z,10.17
2023-04-21T22:40:18.017Z,10.10
2023-04-21T22:42:50.476Z,10.83
2023-04-21T22:45:20.324Z,10.45
2023-04-21T22:47:50.260Z,10.47
2023-04-21T22:50:21.646Z,10.40
2023-04-21T22:52:52.035Z,10.77
2023-04-21T22:55:29.038Z,10.17
2023-04-21T22:58:01.502Z,10.40
2023-04-21T23:00:31.377Z,11.33
2023-04-21T23:03:01.357Z,10.70
2023-04-21T23:05:32.396Z,11.20
2023-04-21T23:08:02.220Z,11.00
2023-04-21T23:10:32.314Z,10.47
2023-04-21T23:13:04.850Z,10.40
2023-04-21T23:15:34.636Z,10.87
2023-04-21T23:18:04.556Z,9.87
2023-04-21T23:20:34.551Z,10.67
2023-04-21T23:23:04.429Z,10.90
2023-04-21T23:25:34.236Z,10.93
2023-04-21T23:28:06.638Z,11.00
2023-04-21T23:30:36.636Z,10.90
2023-04-21T23:33:06.798Z,11.17
2023-04-21T23:35:36.679Z,11.47
2023-04-21T23:38:06.499Z,11.33
2023-04-21T23:40:36.331Z,11.10
2023-04-21T23:43:09.510Z,11.20
2023-04-21T23:45:39.438Z,11.33
2023-04-21T23:48:09.367Z,11.90
2023-04-21T23:50:39.368Z,10.30
2023-04-21T23:53:09.230Z,10.07
2023-04-21T23:55:39.304Z,9.17
2023-04-21T23:58:12.541Z,8.47
